Pine Run, South Dakota
Current Conditions -  °F | °C
As of 8:52 AM on Friday 19 Dec 2014 (Local Time) from KVTN Reporting Station
Clear Clear  
Wind Chill:   Ceiling: Unl
Heat Index: 14°   Visibility: 10mi
Dew Point: 11°   Wind: 8mph
Humidity: 88%   Direction: 240°WSW
Pressure: 30.04"   Gusts: NA
Location:  43.1909°N, 100.475°W
Report Text: KVTN 191452Z AUTO 24007KT 10SM CLR M10/M12 A3004 RMK AO2 SLP221 T11001117 50001
Loading
Personal Weather Stations






























Interactive Weather Map New forecast layout! Learn more

10-Day Weather Forecast

Advertisements
Track Severe Weather on mobile